createdAt,value
2018-03-17T00:00:09.822Z,0.00
2018-03-17T00:01:09.803Z,0.00
2018-03-17T00:02:09.783Z,0.00
2018-03-17T00:03:09.701Z,0.00
2018-03-17T00:04:10.596Z,0.00
2018-03-17T00:05:10.592Z,0.00
2018-03-17T00:06:09.589Z,0.00
2018-03-17T00:07:09.550Z,0.00
2018-03-17T00:08:09.509Z,0.00
2018-03-17T00:09:09.455Z,0.00
2018-03-17T00:10:09.418Z,0.00
2018-03-17T00:11:09.383Z,0.00
2018-03-17T00:12:09.334Z,0.00
2018-03-17T00:13:09.293Z,0.00
2018-03-17T00:14:09.272Z,0.00
2018-03-17T00:15:09.257Z,0.00
2018-03-17T00:16:09.193Z,0.00
2018-03-17T00:17:09.149Z,0.00
2018-03-17T00:18:09.100Z,0.00
2018-03-17T00:19:09.058Z,0.00
2018-03-17T00:20:09.014Z,0.00
2018-03-17T00:21:08.968Z,0.00
2018-03-17T00:22:08.994Z,0.00
2018-03-17T00:23:08.910Z,0.00
2018-03-17T00:24:08.843Z,0.00
2018-03-17T00:25:08.805Z,0.00
2018-03-17T00:26:09.004Z,0.00
2018-03-17T00:27:08.736Z,0.00
2018-03-17T00:28:08.696Z,0.00
2018-03-17T00:29:08.641Z,0.00
2018-03-17T00:30:08.605Z,0.00
2018-03-17T00:31:08.559Z,0.00
2018-03-17T00:32:08.554Z,0.00
2018-03-17T00:33:08.480Z,0.00
2018-03-17T00:34:08.447Z,0.00
2018-03-17T00:35:08.421Z,0.00
2018-03-17T00:36:08.367Z,0.00
2018-03-17T00:37:08.314Z,0.00
2018-03-17T00:38:08.294Z,0.00
2018-03-17T00:39:08.283Z,0.00
2018-03-17T00:40:08.196Z,0.00
2018-03-17T00:41:08.149Z,0.00
2018-03-17T00:42:08.111Z,0.00
2018-03-17T00:43:08.086Z,0.00
2018-03-17T00:44:08.035Z,0.00
2018-03-17T00:45:07.988Z,0.00
2018-03-17T00:46:07.943Z,0.00
2018-03-17T00:47:07.904Z,0.00
2018-03-17T00:48:07.882Z,0.00
2018-03-17T00:49:07.825Z,0.00
2018-03-17T00:50:07.792Z,0.00
2018-03-17T00:51:07.762Z,0.00
2018-03-17T00:52:07.748Z,0.00
2018-03-17T00:53:07.662Z,0.00
2018-03-17T00:54:07.630Z,0.00
2018-03-17T00:55:07.596Z,0.00
2018-03-17T00:56:07.549Z,0.00
2018-03-17T00:57:07.530Z,0.00
2018-03-17T00:58:07.456Z,0.00
2018-03-17T00:59:07.419Z,0.00
2018-03-17T01:00:07.375Z,0.00
2018-03-17T01:01:07.391Z,0.00
2018-03-17T01:02:07.293Z,0.00
2018-03-17T01:03:07.272Z,0.00
2018-03-17T01:04:07.225Z,0.00
2018-03-17T01:05:07.172Z,0.00
2018-03-17T01:06:07.126Z,0.00
2018-03-17T01:07:07.117Z,0.00
2018-03-17T01:08:07.049Z,0.00
2018-03-17T01:09:07.009Z,0.00
2018-03-17T01:10:06.966Z,0.00
2018-03-17T01:11:06.922Z,0.00
2018-03-17T01:12:06.922Z,0.00
2018-03-17T01:13:06.858Z,0.00
2018-03-17T01:14:06.823Z,0.00
2018-03-17T01:15:06.772Z,0.00
2018-03-17T01:16:06.716Z,0.00
2018-03-17T01:17:06.689Z,0.00
2018-03-17T01:18:06.632Z,0.00
2018-03-17T01:19:06.592Z,0.00
2018-03-17T01:20:06.555Z,0.00
2018-03-17T01:21:06.524Z,0.00
2018-03-17T01:22:06.471Z,0.00
2018-03-17T01:23:06.429Z,0.00
2018-03-17T01:24:06.453Z,0.00
2018-03-17T01:25:06.381Z,0.00
2018-03-17T01:26:06.308Z,0.00
2018-03-17T01:27:06.279Z,0.00
2018-03-17T01:28:06.227Z,0.00
2018-03-17T01:29:06.199Z,0.00
2018-03-17T01:30:06.173Z,0.00
2018-03-17T01:31:06.112Z,0.00
2018-03-17T01:32:06.081Z,0.00
2018-03-17T01:33:06.068Z,0.00
2018-03-17T01:34:06.023Z,0.00
2018-03-17T01:35:05.993Z,0.00
2018-03-17T01:36:05.916Z,0.00
2018-03-17T01:37:05.871Z,0.00
2018-03-17T01:38:05.851Z,0.00
2018-03-17T01:39:05.796Z,0.00
2018-03-17T01:40:05.759Z,0.00
2018-03-17T01:41:05.813Z,0.00
2018-03-17T01:42:05.665Z,0.00
2018-03-17T01:43:05.694Z,0.00
2018-03-17T01:44:05.616Z,0.00
2018-03-17T01:45:05.532Z,0.00
2018-03-17T01:46:05.492Z,0.00
2018-03-17T01:47:05.448Z,0.00
2018-03-17T01:48:05.410Z,0.00
2018-03-17T01:49:05.400Z,0.00
2018-03-17T01:50:05.344Z,0.00
2018-03-17T01:51:05.290Z,0.00
2018-03-17T01:52:05.249Z,0.00
2018-03-17T01:53:05.245Z,0.00
2018-03-17T01:54:05.173Z,0.00
2018-03-17T01:55:05.119Z,0.00
2018-03-17T01:56:05.140Z,0.00
2018-03-17T01:57:05.040Z,0.00
2018-03-17T01:58:05.067Z,0.00
2018-03-17T01:59:04.958Z,0.00
2018-03-17T02:00:05.023Z,0.00
2018-03-17T02:01:04.938Z,0.00
2018-03-17T02:02:04.834Z,0.00
2018-03-17T02:03:04.833Z,0.00
2018-03-17T02:04:04.780Z,0.00
2018-03-17T02:05:04.713Z,0.00
2018-03-17T02:06:04.737Z,0.00
2018-03-17T02:07:04.630Z,0.00
2018-03-17T02:08:04.596Z,0.00
2018-03-17T02:09:04.554Z,0.00
2018-03-17T02:10:04.510Z,0.00
2018-03-17T02:11:04.519Z,0.00
2018-03-17T02:12:04.451Z,0.00
2018-03-17T02:13:04.434Z,0.00
2018-03-17T02:14:04.365Z,0.00
2018-03-17T02:15:04.339Z,0.00
2018-03-17T02:16:04.256Z,0.00
2018-03-17T02:17:04.219Z,0.00
2018-03-17T02:18:04.210Z,0.00
2018-03-17T02:19:04.199Z,0.00
2018-03-17T02:20:04.114Z,0.00
2018-03-17T02:21:04.056Z,0.00
2018-03-17T02:22:04.043Z,0.00
2018-03-17T02:23:03.971Z,0.00
2018-03-17T02:24:03.933Z,0.00
2018-03-17T02:25:03.914Z,0.00
2018-03-17T02:26:03.879Z,0.00
2018-03-17T02:27:03.840Z,0.00
2018-03-17T02:28:03.763Z,0.00
2018-03-17T02:29:03.749Z,0.00
2018-03-17T02:30:03.700Z,0.00
2018-03-17T02:31:03.642Z,0.00
2018-03-17T02:32:03.674Z,0.00
2018-03-17T02:33:03.564Z,0.00
2018-03-17T02:34:03.527Z,0.00
2018-03-17T02:35:03.476Z,0.00
2018-03-17T02:36:03.444Z,0.00
2018-03-17T02:37:03.431Z,0.00
2018-03-17T02:38:03.360Z,0.00
2018-03-17T02:39:03.371Z,0.00
2018-03-17T02:40:03.287Z,0.00
2018-03-17T02:41:03.241Z,0.00
2018-03-17T02:42:03.205Z,0.00
2018-03-17T02:43:03.151Z,0.00
2018-03-17T02:44:03.157Z,0.00
2018-03-17T02:45:03.078Z,0.00
2018-03-17T02:46:03.069Z,0.00
2018-03-17T02:47:02.994Z,0.00
2018-03-17T02:48:02.942Z,0.00
2018-03-17T02:49:02.908Z,0.00
2018-03-17T02:50:02.892Z,0.00
2018-03-17T02:51:02.856Z,0.00
2018-03-17T02:52:02.782Z,0.00
2018-03-17T02:53:02.767Z,0.00
2018-03-17T02:54:02.701Z,0.00
2018-03-17T02:55:02.679Z,0.00
2018-03-17T02:56:02.652Z,0.00
2018-03-17T02:57:02.574Z,0.00
2018-03-17T02:58:02.534Z,0.00
2018-03-17T02:59:02.501Z,0.00
2018-03-17T03:00:02.445Z,0.00
2018-03-17T03:01:02.453Z,0.00
2018-03-17T03:02:02.375Z,0.00
2018-03-17T03:03:02.368Z,0.00
2018-03-17T03:04:02.297Z,0.00
2018-03-17T03:05:02.237Z,0.00
2018-03-17T03:06:02.207Z,0.00
2018-03-17T03:07:02.162Z,0.00
2018-03-17T03:08:02.115Z,0.00
2018-03-17T03:09:02.105Z,0.00
2018-03-17T03:10:02.081Z,0.00
2018-03-17T03:11:02.006Z,0.00
2018-03-17T03:12:01.955Z,0.00
2018-03-17T03:13:02.017Z,0.00
2018-03-17T03:14:01.883Z,0.00
2018-03-17T03:15:01.822Z,0.00
2018-03-17T03:16:01.811Z,0.00
2018-03-17T03:17:01.758Z,0.00
2018-03-17T03:18:01.706Z,0.00
2018-03-17T03:19:01.655Z,0.00
2018-03-17T03:20:01.617Z,0.00
2018-03-17T03:21:01.603Z,0.00
2018-03-17T03:22:01.548Z,0.00
2018-03-17T03:23:01.498Z,0.00
2018-03-17T03:24:01.485Z,0.00
2018-03-17T03:25:01.413Z,0.00
2018-03-17T03:26:01.370Z,0.00
2018-03-17T03:27:01.364Z,0.00
2018-03-17T03:28:01.311Z,0.00
2018-03-17T03:29:01.306Z,0.00
2018-03-17T03:30:01.228Z,0.00
2018-03-17T03:31:01.165Z,0.00
2018-03-17T03:32:01.152Z,0.00
2018-03-17T03:33:01.093Z,0.00
2018-03-17T03:34:01.034Z,0.00
2018-03-17T03:35:01.025Z,0.00
2018-03-17T03:36:00.969Z,0.00
2018-03-17T03:37:00.938Z,0.00
2018-03-17T03:38:00.889Z,0.00
2018-03-17T03:39:00.833Z,0.00
2018-03-17T03:40:00.850Z,0.00
2018-03-17T03:41:00.759Z,0.00
2018-03-17T03:42:00.704Z,0.00
2018-03-17T03:43:00.673Z,0.00
2018-03-17T03:44:00.627Z,0.00
2018-03-17T03:45:00.665Z,0.00
2018-03-17T03:46:00.540Z,0.00
2018-03-17T03:47:00.526Z,0.00
2018-03-17T03:48:00.461Z,0.00
2018-03-17T03:49:00.475Z,0.00
2018-03-17T03:50:00.372Z,0.00
2018-03-17T03:51:00.338Z,0.00
2018-03-17T03:52:00.300Z,0.00
2018-03-17T03:53:00.292Z,0.00
2018-03-17T03:54:00.246Z,0.00
2018-03-17T03:55:00.177Z,0.00
2018-03-17T03:56:00.129Z,0.00
2018-03-17T03:57:02.074Z,0.00
2018-03-17T03:58:00.057Z,0.00
2018-03-17T03:59:00.576Z,0.00
2018-03-17T03:59:59.966Z,0.00
2018-03-17T04:00:59.964Z,0.00
2018-03-17T04:01:59.937Z,0.00
2018-03-17T04:02:59.841Z,0.00
2018-03-17T04:03:59.840Z,0.00
2018-03-17T04:04:59.755Z,0.00
2018-03-17T04:05:59.709Z,0.00
2018-03-17T04:06:59.707Z,0.00
2018-03-17T04:07:59.626Z,0.00
2018-03-17T04:08:59.588Z,0.00
2018-03-17T04:09:59.585Z,0.00
2018-03-17T04:10:59.509Z,0.00
2018-03-17T04:11:59.466Z,0.00
2018-03-17T04:12:59.438Z,0.00
2018-03-17T04:13:59.393Z,0.00
2018-03-17T04:14:59.346Z,0.00
2018-03-17T04:15:59.320Z,0.00
2018-03-17T04:16:59.275Z,0.00
2018-03-17T04:17:59.213Z,0.00
2018-03-17T04:18:59.174Z,0.00
2018-03-17T04:19:59.214Z,0.00
2018-03-17T04:20:59.109Z,0.00
2018-03-17T04:21:59.076Z,0.00
2018-03-17T04:22:59.070Z,0.00
2018-03-17T04:23:58.972Z,0.00
2018-03-17T04:24:58.946Z,0.00
2018-03-17T04:25:58.906Z,0.00
2018-03-17T04:26:58.839Z,0.00
2018-03-17T04:27:58.879Z,0.00
2018-03-17T04:28:58.813Z,0.00
2018-03-17T04:29:58.719Z,0.00
2018-03-17T04:30:58.676Z,0.00
2018-03-17T04:31:58.656Z,0.00
2018-03-17T04:32:58.685Z,0.00
2018-03-17T04:33:58.567Z,0.00
2018-03-17T04:34:58.508Z,0.00
2018-03-17T04:35:58.532Z,0.00
2018-03-17T04:36:58.437Z,0.00
2018-03-17T04:37:58.383Z,0.00
2018-03-17T04:38:58.407Z,0.00
2018-03-17T04:39:58.365Z,0.00
2018-03-17T04:40:58.272Z,0.00
2018-03-17T04:41:58.236Z,0.00
2018-03-17T04:42:58.172Z,0.00
2018-03-17T04:43:58.135Z,0.00
2018-03-17T04:44:58.088Z,0.00
2018-03-17T04:45:58.064Z,0.00
2018-03-17T04:46:58.041Z,0.00
2018-03-17T04:47:57.989Z,0.00
2018-03-17T04:48:57.955Z,0.00
2018-03-17T04:49:57.922Z,0.00
2018-03-17T04:50:57.850Z,0.00
2018-03-17T04:51:57.814Z,0.00
2018-03-17T04:52:57.779Z,0.00
2018-03-17T04:53:57.758Z,0.00
2018-03-17T04:54:57.669Z,0.00
2018-03-17T04:55:57.650Z,0.00
2018-03-17T04:56:57.603Z,0.00
2018-03-17T04:57:57.558Z,0.00
2018-03-17T04:58:57.518Z,0.00
2018-03-17T04:59:57.489Z,0.00
2018-03-17T05:00:57.429Z,0.00
2018-03-17T05:01:57.384Z,0.00
2018-03-17T05:02:57.393Z,0.00
2018-03-17T05:03:57.379Z,0.00
2018-03-17T05:04:57.285Z,0.00
2018-03-17T05:05:57.222Z,0.00
2018-03-17T05:06:57.170Z,0.00
2018-03-17T05:07:57.212Z,0.00
2018-03-17T05:08:57.109Z,0.00
2018-03-17T05:09:57.054Z,0.00
2018-03-17T05:10:57.036Z,0.00
2018-03-17T05:11:56.982Z,0.00
2018-03-17T05:12:56.963Z,0.00
2018-03-17T05:13:56.895Z,0.00
2018-03-17T05:14:56.839Z,0.00
2018-03-17T05:15:56.827Z,0.00
2018-03-17T05:16:56.772Z,0.00
2018-03-17T05:17:56.715Z,0.00
2018-03-17T05:18:56.681Z,0.00
2018-03-17T05:19:56.705Z,0.00
2018-03-17T05:20:56.646Z,0.00
2018-03-17T05:21:56.566Z,0.00
2018-03-17T05:22:56.529Z,0.00
2018-03-17T05:23:56.465Z,0.00
2018-03-17T05:24:56.424Z,0.00
2018-03-17T05:25:56.381Z,0.00
2018-03-17T05:26:56.339Z,0.00
2018-03-17T05:27:56.296Z,0.00
2018-03-17T05:28:56.256Z,0.00
2018-03-17T05:29:56.213Z,0.00
2018-03-17T05:30:56.171Z,4.00
2018-03-17T05:31:56.132Z,0.00
2018-03-17T05:32:56.087Z,4.00
2018-03-17T05:33:56.046Z,4.00
2018-03-17T05:34:56.005Z,0.00
2018-03-17T05:35:55.962Z,4.00
2018-03-17T05:36:55.923Z,4.00
2018-03-17T05:37:55.886Z,4.00
2018-03-17T05:38:55.837Z,4.00
2018-03-17T05:39:55.795Z,8.00
2018-03-17T05:40:55.753Z,8.00
2018-03-17T05:41:55.708Z,8.00
2018-03-17T05:42:55.668Z,12.00
2018-03-17T05:43:55.625Z,12.00
2018-03-17T05:44:55.588Z,12.00
2018-03-17T05:45:55.542Z,8.00
2018-03-17T05:46:55.503Z,12.00
2018-03-17T05:47:55.461Z,12.00
2018-03-17T05:48:55.427Z,12.00
2018-03-17T05:49:55.376Z,12.00
2018-03-17T05:50:55.335Z,16.00
2018-03-17T05:51:55.293Z,20.00
2018-03-17T05:52:55.250Z,16.00
2018-03-17T05:53:55.208Z,16.00
2018-03-17T05:54:55.167Z,20.00
2018-03-17T05:55:55.127Z,20.00
2018-03-17T05:56:55.084Z,24.00
2018-03-17T05:57:55.043Z,32.00
2018-03-17T05:58:55.500Z,32.00
2018-03-17T05:59:54.959Z,36.00
2018-03-17T06:00:54.915Z,40.00
2018-03-17T06:01:54.873Z,40.00
2018-03-17T06:02:54.831Z,36.00
2018-03-17T06:03:54.792Z,32.00
2018-03-17T06:04:54.749Z,44.00
2018-03-17T06:05:54.707Z,44.00
2018-03-17T06:06:54.662Z,48.00
2018-03-17T06:07:54.624Z,44.00
2018-03-17T06:08:54.579Z,44.00
2018-03-17T06:09:54.540Z,44.00
2018-03-17T06:10:55.142Z,40.00
2018-03-17T06:11:54.457Z,48.00
2018-03-17T06:12:54.417Z,52.00
2018-03-17T06:13:54.370Z,56.00
2018-03-17T06:14:54.332Z,64.00
2018-03-17T06:15:54.290Z,60.00
2018-03-17T06:16:54.250Z,60.00
2018-03-17T06:17:54.203Z,60.00
2018-03-17T06:18:54.159Z,64.00
2018-03-17T06:19:54.118Z,72.00
2018-03-17T06:20:54.081Z,64.00
2018-03-17T06:21:54.036Z,68.00
2018-03-17T06:22:53.994Z,68.00
2018-03-17T06:23:53.952Z,84.00
2018-03-17T06:24:53.916Z,92.00
2018-03-17T06:25:53.869Z,100.00
2018-03-17T06:26:53.827Z,124.00
2018-03-17T06:27:53.784Z,136.00
2018-03-17T06:28:53.749Z,140.00
2018-03-17T06:29:53.703Z,128.00
2018-03-17T06:30:53.663Z,124.00
2018-03-17T06:31:53.617Z,148.00
2018-03-17T06:32:53.578Z,160.00
2018-03-17T06:33:53.540Z,136.00
2018-03-17T06:34:53.494Z,136.00
2018-03-17T06:35:53.453Z,132.00
2018-03-17T06:36:53.410Z,144.00
2018-03-17T06:37:53.368Z,160.00
2018-03-17T06:38:53.323Z,188.00
2018-03-17T06:39:53.285Z,196.00
2018-03-17T06:40:53.244Z,240.00
2018-03-17T06:41:53.201Z,276.00
2018-03-17T06:42:53.157Z,300.00
2018-03-17T06:43:53.118Z,264.00
2018-03-17T06:44:53.074Z,212.00
2018-03-17T06:45:53.033Z,200.00
2018-03-17T06:46:52.990Z,212.00
2018-03-17T06:47:52.949Z,212.00
2018-03-17T06:48:52.906Z,208.00
2018-03-17T06:49:52.892Z,192.00
2018-03-17T06:50:52.824Z,204.00
2018-03-17T06:51:52.780Z,204.00
2018-03-17T06:52:52.740Z,208.00
2018-03-17T06:53:52.698Z,228.00
2018-03-17T06:54:52.659Z,236.00
2018-03-17T06:55:52.613Z,228.00
2018-03-17T06:56:52.572Z,212.00
2018-03-17T06:57:52.529Z,200.00
2018-03-17T06:58:52.488Z,200.00
2018-03-17T06:59:52.446Z,224.00
2018-03-17T07:00:52.404Z,240.00
2018-03-17T07:01:52.363Z,224.00
2018-03-17T07:02:52.343Z,212.00
2018-03-17T07:03:52.278Z,204.00
2018-03-17T07:04:52.242Z,208.00
2018-03-17T07:05:52.214Z,232.00
2018-03-17T07:06:52.159Z,260.00
2018-03-17T07:07:52.112Z,292.00
2018-03-17T07:08:52.069Z,304.00
2018-03-17T07:09:52.028Z,328.00
2018-03-17T07:10:51.986Z,348.00
2018-03-17T07:11:51.944Z,412.00
2018-03-17T07:12:51.903Z,416.00
2018-03-17T07:13:51.859Z,352.00
2018-03-17T07:14:51.818Z,304.00
2018-03-17T07:15:51.776Z,316.00
2018-03-17T07:16:51.735Z,280.00
2018-03-17T07:17:51.693Z,264.00
2018-03-17T07:18:51.660Z,288.00
2018-03-17T07:19:51.610Z,336.00
2018-03-17T07:20:51.569Z,336.00
2018-03-17T07:21:51.525Z,336.00
2018-03-17T07:22:51.484Z,332.00
2018-03-17T07:23:51.441Z,380.00
2018-03-17T07:24:51.403Z,392.00
2018-03-17T07:25:51.358Z,456.00
2018-03-17T07:26:51.317Z,448.00
2018-03-17T07:27:51.275Z,456.00
2018-03-17T07:28:51.234Z,464.00
2018-03-17T07:29:51.192Z,508.00
2018-03-17T07:30:51.147Z,504.00
2018-03-17T07:31:51.107Z,488.00
2018-03-17T07:32:51.072Z,544.00
2018-03-17T07:33:51.023Z,540.00
2018-03-17T07:34:50.979Z,532.00
2018-03-17T07:35:50.937Z,528.00
2018-03-17T07:36:50.898Z,588.00
2018-03-17T07:37:50.857Z,560.00
2018-03-17T07:38:50.814Z,512.00
2018-03-17T07:39:50.769Z,484.00
2018-03-17T07:40:50.728Z,480.00
2018-03-17T07:41:50.686Z,444.00
2018-03-17T07:42:50.642Z,412.00
2018-03-17T07:43:50.604Z,436.00
2018-03-17T07:44:50.565Z,452.00
2018-03-17T07:45:50.519Z,428.00
2018-03-17T07:46:50.529Z,436.00
2018-03-17T07:47:50.436Z,460.00
2018-03-17T07:48:51.049Z,504.00
2018-03-17T07:49:50.355Z,540.00
2018-03-17T07:50:50.309Z,568.00
2018-03-17T07:51:50.267Z,584.00
2018-03-17T07:52:50.226Z,612.00
2018-03-17T07:53:50.184Z,588.00
2018-03-17T07:54:50.159Z,580.00
2018-03-17T07:55:50.098Z,600.00
2018-03-17T07:56:50.056Z,612.00
2018-03-17T07:57:50.014Z,636.00
2018-03-17T07:58:49.973Z,676.00
2018-03-17T07:59:49.931Z,688.00
2018-03-17T08:00:49.889Z,708.00
2018-03-17T08:01:49.846Z,712.00
2018-03-17T08:02:49.802Z,724.00
2018-03-17T08:03:49.762Z,712.00
2018-03-17T08:04:49.719Z,708.00
2018-03-17T08:05:49.681Z,676.00
2018-03-17T08:06:49.638Z,684.00
2018-03-17T08:07:49.593Z,640.00
2018-03-17T08:08:49.552Z,676.00
2018-03-17T08:09:49.509Z,740.00
2018-03-17T08:10:49.465Z,656.00
2018-03-17T08:11:49.424Z,580.00
2018-03-17T08:12:49.389Z,516.00
2018-03-17T08:13:49.342Z,496.00
2018-03-17T08:14:49.299Z,524.00
2018-03-17T08:15:49.258Z,564.00
2018-03-17T08:16:49.216Z,580.00
2018-03-17T08:17:49.189Z,584.00
2018-03-17T08:18:49.156Z,600.00
2018-03-17T08:19:49.089Z,588.00
2018-03-17T08:20:49.047Z,584.00
2018-03-17T08:21:49.008Z,592.00
2018-03-17T08:22:48.960Z,612.00
2018-03-17T08:23:48.919Z,632.00
2018-03-17T08:24:48.878Z,628.00
2018-03-17T08:25:48.834Z,624.00
2018-03-17T08:26:48.793Z,636.00
2018-03-17T08:27:48.750Z,636.00
2018-03-17T08:28:48.709Z,616.00
2018-03-17T08:29:48.672Z,592.00
2018-03-17T08:30:48.625Z,612.00
2018-03-17T08:31:48.582Z,640.00
2018-03-17T08:32:48.546Z,660.00
2018-03-17T08:33:48.497Z,692.00
2018-03-17T08:34:48.454Z,740.00
2018-03-17T08:35:48.413Z,800.00
2018-03-17T08:36:48.374Z,848.00
2018-03-17T08:37:48.326Z,868.00
2018-03-17T08:38:48.285Z,912.00
2018-03-17T08:39:48.245Z,968.00
2018-03-17T08:40:48.201Z,988.00
2018-03-17T08:41:48.158Z,1032.00
2018-03-17T08:42:48.118Z,1088.00
2018-03-17T08:43:48.078Z,1104.00
2018-03-17T08:44:48.034Z,1072.00
2018-03-17T08:45:47.989Z,1028.00
2018-03-17T08:46:47.946Z,1112.00
2018-03-17T08:47:47.906Z,1196.00
2018-03-17T08:48:47.907Z,1196.00
2018-03-17T08:49:47.822Z,1184.00
2018-03-17T08:50:47.778Z,1260.00
2018-03-17T08:51:47.738Z,1472.00
2018-03-17T08:52:47.703Z,1572.00
2018-03-17T08:53:47.652Z,1556.00
2018-03-17T08:54:47.613Z,1500.00
2018-03-17T08:55:47.597Z,1524.00
2018-03-17T08:56:47.528Z,1432.00
2018-03-17T08:57:47.487Z,1316.00
2018-03-17T08:58:47.490Z,1316.00
2018-03-17T08:59:47.402Z,1324.00
2018-03-17T09:00:47.358Z,1220.00
2018-03-17T09:01:47.321Z,1124.00
2018-03-17T09:02:47.280Z,1016.00
2018-03-17T09:03:47.237Z,900.00
2018-03-17T09:04:47.195Z,812.00
2018-03-17T09:05:47.149Z,800.00
2018-03-17T09:06:47.110Z,804.00
2018-03-17T09:07:47.065Z,892.00
2018-03-17T09:08:47.023Z,1152.00
2018-03-17T09:09:46.980Z,1376.00
2018-03-17T09:10:46.955Z,1580.00
2018-03-17T09:11:46.900Z,1616.00
2018-03-17T09:12:46.862Z,1552.00
2018-03-17T09:13:46.813Z,1468.00
2018-03-17T09:14:46.770Z,1320.00
2018-03-17T09:15:46.727Z,1220.00
2018-03-17T09:16:46.691Z,1108.00
2018-03-17T09:17:46.644Z,1112.00
2018-03-17T09:18:46.603Z,1076.00
2018-03-17T09:19:46.561Z,1020.00
2018-03-17T09:20:46.521Z,1060.00
2018-03-17T09:21:46.478Z,1208.00
2018-03-17T09:22:46.435Z,1164.00
2018-03-17T09:23:46.395Z,1156.00
2018-03-17T09:24:46.354Z,1116.00
2018-03-17T09:25:46.311Z,1068.00
2018-03-17T09:26:46.266Z,1028.00
2018-03-17T09:27:46.228Z,984.00
2018-03-17T09:28:46.184Z,980.00
2018-03-17T09:29:46.149Z,932.00
2018-03-17T09:30:46.100Z,908.00
2018-03-17T09:31:46.058Z,896.00
2018-03-17T09:32:46.019Z,880.00
2018-03-17T09:33:45.979Z,864.00
2018-03-17T09:34:45.987Z,852.00
2018-03-17T09:35:45.901Z,864.00
2018-03-17T09:36:45.851Z,912.00
2018-03-17T09:37:45.810Z,1004.00
2018-03-17T09:38:45.767Z,1044.00
2018-03-17T09:39:45.725Z,1144.00
2018-03-17T09:40:45.819Z,1208.00
2018-03-17T09:41:45.638Z,1216.00
2018-03-17T09:42:45.594Z,1160.00
2018-03-17T09:43:45.554Z,1152.00
2018-03-17T09:44:45.514Z,1136.00
2018-03-17T09:45:45.472Z,1252.00
2018-03-17T09:46:45.429Z,1376.00
2018-03-17T09:47:45.395Z,1312.00
2018-03-17T09:48:45.346Z,1296.00
2018-03-17T09:49:45.311Z,1308.00
2018-03-17T09:50:45.262Z,1320.00
2018-03-17T09:51:45.221Z,1220.00
2018-03-17T09:52:45.178Z,1176.00
2018-03-17T09:53:45.134Z,1116.00
2018-03-17T09:54:45.094Z,1108.00
2018-03-17T09:55:45.052Z,1180.00
2018-03-17T09:56:45.012Z,1168.00
2018-03-17T09:57:44.967Z,1116.00
2018-03-17T09:58:44.926Z,1124.00
2018-03-17T09:59:44.886Z,1236.00
2018-03-17T10:00:44.872Z,1360.00
2018-03-17T10:01:44.799Z,1300.00
2018-03-17T10:02:44.759Z,1348.00
2018-03-17T10:03:44.717Z,1316.00
2018-03-17T10:04:44.697Z,1260.00
2018-03-17T10:05:44.633Z,1180.00
2018-03-17T10:06:44.593Z,1236.00
2018-03-17T10:07:44.547Z,1252.00
2018-03-17T10:08:44.506Z,1152.00
2018-03-17T10:09:44.461Z,1104.00
2018-03-17T10:10:44.424Z,1140.00
2018-03-17T10:11:44.401Z,1160.00
2018-03-17T10:12:44.340Z,1140.00
2018-03-17T10:13:44.295Z,1252.00
2018-03-17T10:14:44.254Z,1328.00
2018-03-17T10:15:44.224Z,1296.00
2018-03-17T10:16:44.173Z,1420.00
2018-03-17T10:17:44.130Z,1488.00
2018-03-17T10:18:46.608Z,1408.00
2018-03-17T10:19:44.044Z,1432.00
2018-03-17T10:20:44.003Z,1484.00
2018-03-17T10:21:43.958Z,1500.00
2018-03-17T10:22:43.921Z,1524.00
2018-03-17T10:23:43.881Z,1556.00
2018-03-17T10:24:43.839Z,1468.00
2018-03-17T10:25:43.796Z,1392.00
2018-03-17T10:26:43.753Z,1364.00
2018-03-17T10:27:43.711Z,1400.00
2018-03-17T10:28:43.669Z,1544.00
2018-03-17T10:29:43.650Z,1744.00
2018-03-17T10:30:43.582Z,1904.00
2018-03-17T10:31:43.543Z,1920.00
2018-03-17T10:32:43.500Z,1932.00
2018-03-17T10:33:43.459Z,1892.00
2018-03-17T10:34:43.443Z,1868.00
2018-03-17T10:35:43.383Z,1832.00
2018-03-17T10:36:43.338Z,1756.00
2018-03-17T10:37:43.290Z,1712.00
2018-03-17T10:38:43.251Z,1696.00
2018-03-17T10:39:43.230Z,1668.00
2018-03-17T10:40:43.166Z,1656.00
2018-03-17T10:41:43.125Z,1676.00
2018-03-17T10:42:43.085Z,1648.00
2018-03-17T10:43:43.047Z,1604.00
2018-03-17T10:44:43.000Z,1540.00
2018-03-17T10:45:42.958Z,1504.00
2018-03-17T10:46:42.915Z,1484.00
2018-03-17T10:47:42.874Z,1448.00
2018-03-17T10:48:42.833Z,1396.00
2018-03-17T10:49:42.791Z,1384.00
2018-03-17T10:50:42.748Z,1424.00
2018-03-17T10:51:42.707Z,1440.00
2018-03-17T10:52:42.665Z,1468.00
2018-03-17T10:53:42.629Z,1520.00
2018-03-17T10:54:42.584Z,1592.00
2018-03-17T10:55:42.542Z,1600.00
2018-03-17T10:56:42.499Z,1616.00
2018-03-17T10:57:42.456Z,1560.00
2018-03-17T10:58:42.414Z,1540.00
2018-03-17T10:59:42.370Z,1504.00
2018-03-17T11:00:42.328Z,1488.00
2018-03-17T11:01:42.287Z,1480.00
2018-03-17T11:02:42.249Z,1488.00
2018-03-17T11:03:42.205Z,1516.00
2018-03-17T11:04:42.163Z,1544.00
2018-03-17T11:05:42.125Z,1600.00
2018-03-17T11:06:42.083Z,1636.00
2018-03-17T11:07:42.040Z,1720.00
2018-03-17T11:08:41.998Z,1756.00
2018-03-17T11:09:41.954Z,1732.00
2018-03-17T11:10:41.916Z,1668.00
2018-03-17T11:11:41.921Z,1600.00
2018-03-17T11:12:41.831Z,1572.00
2018-03-17T11:13:41.798Z,1528.00
2018-03-17T11:14:41.745Z,1504.00
2018-03-17T11:15:41.710Z,1508.00
2018-03-17T11:16:41.664Z,1472.00
2018-03-17T11:17:41.620Z,1480.00
2018-03-17T11:18:41.579Z,1460.00
2018-03-17T11:19:41.552Z,1464.00
2018-03-17T11:20:41.495Z,1496.00
2018-03-17T11:21:41.454Z,1556.00
2018-03-17T11:22:41.409Z,1632.00
2018-03-17T11:23:41.369Z,1680.00
2018-03-17T11:24:41.348Z,1732.00
2018-03-17T11:25:41.283Z,1820.00
2018-03-17T11:26:42.025Z,1724.00
2018-03-17T11:27:42.026Z,1684.00
2018-03-17T11:28:41.168Z,1652.00
2018-03-17T11:29:41.121Z,1604.00
2018-03-17T11:30:41.077Z,1628.00
2018-03-17T11:31:41.037Z,1672.00
2018-03-17T11:32:40.996Z,1732.00
2018-03-17T11:33:40.952Z,1824.00
2018-03-17T11:34:40.908Z,1876.00
2018-03-17T11:35:40.867Z,1900.00
2018-03-17T11:36:40.824Z,1872.00
2018-03-17T11:37:40.789Z,1864.00
2018-03-17T11:38:40.744Z,1844.00
2018-03-17T11:39:40.698Z,1828.00
2018-03-17T11:40:40.663Z,1760.00
2018-03-17T11:41:40.615Z,1716.00
2018-03-17T11:42:40.580Z,1624.00
2018-03-17T11:43:40.539Z,1576.00
2018-03-17T11:44:40.496Z,1592.00
2018-03-17T11:45:40.449Z,1644.00
2018-03-17T11:46:40.411Z,1684.00
2018-03-17T11:47:40.387Z,1704.00
2018-03-17T11:48:40.328Z,1780.00
2018-03-17T11:49:40.284Z,1752.00
2018-03-17T11:50:40.240Z,1680.00
2018-03-17T11:51:40.200Z,1648.00
2018-03-17T11:52:40.158Z,1656.00
2018-03-17T11:53:40.512Z,1640.00
2018-03-17T11:54:40.076Z,1604.00
2018-03-17T11:55:40.030Z,1628.00
2018-03-17T11:56:39.992Z,1620.00
2018-03-17T11:57:39.951Z,1592.00
2018-03-17T11:58:39.905Z,1576.00
2018-03-17T11:59:39.865Z,1576.00
2018-03-17T12:00:39.824Z,1600.00
2018-03-17T12:01:39.782Z,1576.00
2018-03-17T12:02:39.741Z,1564.00
2018-03-17T12:03:39.699Z,1648.00
2018-03-17T12:04:39.660Z,1664.00
2018-03-17T12:05:39.616Z,1684.00
2018-03-17T12:06:39.572Z,1652.00
2018-03-17T12:07:39.531Z,1636.00
2018-03-17T12:08:39.507Z,1576.00
2018-03-17T12:09:39.449Z,1500.00
2018-03-17T12:10:39.404Z,1436.00
2018-03-17T12:11:39.366Z,1388.00
2018-03-17T12:12:39.322Z,1396.00
2018-03-17T12:13:39.282Z,1364.00
2018-03-17T12:14:39.236Z,1352.00
2018-03-17T12:15:39.197Z,1332.00
2018-03-17T12:16:39.150Z,1328.00
2018-03-17T12:17:39.113Z,1396.00
2018-03-17T12:18:39.071Z,1468.00
2018-03-17T12:19:39.032Z,1508.00
2018-03-17T12:20:38.989Z,1564.00
2018-03-17T12:21:38.948Z,1596.00
2018-03-17T12:22:38.905Z,1676.00
2018-03-17T12:23:38.862Z,1716.00
2018-03-17T12:24:38.820Z,1752.00
2018-03-17T12:25:38.781Z,1792.00
2018-03-17T12:26:38.736Z,1852.00
2018-03-17T12:27:38.696Z,1836.00
2018-03-17T12:28:38.654Z,1836.00
2018-03-17T12:29:38.610Z,1808.00
2018-03-17T12:30:38.570Z,1760.00
2018-03-17T12:31:38.529Z,1736.00
2018-03-17T12:32:38.490Z,1700.00
2018-03-17T12:33:38.445Z,1660.00
2018-03-17T12:34:38.402Z,1672.00
2018-03-17T12:35:38.360Z,1664.00
2018-03-17T12:36:38.337Z,1660.00
2018-03-17T12:37:38.300Z,1668.00
2018-03-17T12:38:38.236Z,1772.00
2018-03-17T12:39:38.194Z,1764.00
2018-03-17T12:40:38.150Z,1712.00
2018-03-17T12:41:38.115Z,1668.00
2018-03-17T12:42:38.067Z,1656.00
2018-03-17T12:43:38.026Z,1620.00